createdAt,value
2024-05-09T00:00:39.222Z,100.00
2024-05-09T00:03:08.615Z,100.00
2024-05-09T00:05:36.815Z,100.00
2024-05-09T00:08:04.501Z,100.00
2024-05-09T00:10:36.440Z,100.00
2024-05-09T00:13:05.790Z,100.00
2024-05-09T00:15:33.598Z,100.00
2024-05-09T00:18:00.860Z,100.00
2024-05-09T00:20:33.499Z,100.00
2024-05-09T00:23:07.045Z,100.00
2024-05-09T00:25:34.218Z,100.00
2024-05-09T00:28:00.975Z,100.00
2024-05-09T00:30:33.781Z,100.00
2024-05-09T00:33:03.862Z,100.00
2024-05-09T00:35:31.228Z,100.00
2024-05-09T00:37:58.000Z,100.00
2024-05-09T00:40:35.300Z,100.00
2024-05-09T00:43:06.409Z,100.00
2024-05-09T00:45:34.413Z,100.00
2024-05-09T00:48:05.026Z,100.00
2024-05-09T00:50:37.480Z,100.00
2024-05-09T00:53:07.038Z,100.00
2024-05-09T00:55:35.634Z,100.00
2024-05-09T00:58:04.433Z,100.00
2024-05-09T01:00:37.979Z,100.00
2024-05-09T01:03:07.316Z,100.00
2024-05-09T01:05:35.054Z,100.00
2024-05-09T01:08:03.159Z,100.00
2024-05-09T01:10:34.626Z,100.00
2024-05-09T01:13:06.961Z,100.00
2024-05-09T01:15:35.028Z,100.00
2024-05-09T01:18:07.312Z,100.00
2024-05-09T01:20:41.145Z,100.00
2024-05-09T01:23:11.166Z,100.00
2024-05-09T01:25:38.229Z,100.00
2024-05-09T01:28:05.517Z,100.00
2024-05-09T01:30:35.600Z,100.00
2024-05-09T01:33:06.275Z,100.00
2024-05-09T01:35:34.688Z,100.00
2024-05-09T01:38:01.508Z,100.00
2024-05-09T01:40:36.745Z,100.00
2024-05-09T01:43:06.406Z,100.00
2024-05-09T01:45:33.220Z,100.00
2024-05-09T01:48:00.142Z,100.00
2024-05-09T01:50:36.982Z,100.00
2024-05-09T01:53:07.765Z,100.00
2024-05-09T01:55:34.539Z,100.00
2024-05-09T01:58:01.210Z,100.00
2024-05-09T02:00:37.948Z,100.00
2024-05-09T02:03:15.373Z,100.00
2024-05-09T02:05:48.435Z,100.00
2024-05-09T02:08:17.972Z,100.00
2024-05-09T02:10:46.523Z,100.00
2024-05-09T02:13:13.809Z,100.00
2024-05-09T02:15:40.319Z,100.00
2024-05-09T02:18:08.081Z,100.00
2024-05-09T02:20:38.060Z,100.00
2024-05-09T02:23:06.610Z,100.00
2024-05-09T02:25:33.769Z,100.00
2024-05-09T02:28:00.589Z,100.00
2024-05-09T02:30:37.767Z,100.00
2024-05-09T02:33:08.700Z,100.00
2024-05-09T02:35:36.315Z,100.00
2024-05-09T02:38:03.332Z,100.00
2024-05-09T02:40:36.700Z,100.00
2024-05-09T02:43:10.810Z,100.00
2024-05-09T02:45:41.450Z,100.00
2024-05-09T02:48:13.225Z,100.00
2024-05-09T02:50:41.087Z,100.00
2024-05-09T02:53:09.345Z,100.00
2024-05-09T02:55:37.170Z,100.00
2024-05-09T02:58:04.198Z,100.00
2024-05-09T03:00:38.549Z,100.00
2024-05-09T03:03:09.718Z,100.00
2024-05-09T03:05:38.352Z,100.00
2024-05-09T03:08:05.710Z,100.00
2024-05-09T03:10:36.293Z,100.00
2024-05-09T03:13:13.945Z,100.00
2024-05-09T03:15:42.511Z,100.00
2024-05-09T03:18:09.945Z,100.00
2024-05-09T03:20:38.066Z,100.00
2024-05-09T03:23:08.065Z,100.00
2024-05-09T03:25:35.979Z,100.00
2024-05-09T03:28:02.767Z,100.00
2024-05-09T03:30:38.352Z,100.00
2024-05-09T03:33:17.733Z,100.00
2024-05-09T03:35:46.662Z,100.00
2024-05-09T03:38:13.704Z,100.00
2024-05-09T03:40:48.771Z,100.00
2024-05-09T03:43:16.559Z,100.00
2024-05-09T03:45:43.657Z,100.00
2024-05-09T03:48:10.659Z,100.00
2024-05-09T03:50:37.951Z,100.00
2024-05-09T03:53:05.455Z,100.00
2024-05-09T03:55:32.268Z,100.00
2024-05-09T03:57:59.190Z,100.00
2024-05-09T04:00:34.492Z,100.00
2024-05-09T04:03:07.666Z,100.00
2024-05-09T04:05:38.109Z,100.00
2024-05-09T04:08:05.565Z,100.00
2024-05-09T04:10:34.221Z,100.00
2024-05-09T04:13:03.150Z,100.00
2024-05-09T04:15:30.305Z,100.00
2024-05-09T04:17:57.177Z,100.00
2024-05-09T04:20:33.458Z,100.00
2024-05-09T04:23:13.611Z,100.00
2024-05-09T04:25:42.799Z,100.00
2024-05-09T04:28:10.061Z,100.00
2024-05-09T04:30:39.707Z,100.00
2024-05-09T04:33:11.034Z,100.00
2024-05-09T04:35:42.033Z,100.00
2024-05-09T04:38:09.138Z,100.00
2024-05-09T04:40:37.242Z,100.00
2024-05-09T04:43:05.947Z,100.00
2024-05-09T04:45:33.048Z,100.00
2024-05-09T04:48:00.224Z,100.00
2024-05-09T04:50:35.592Z,100.00
2024-05-09T04:53:06.215Z,100.00
2024-05-09T04:55:33.674Z,100.00
2024-05-09T04:58:00.386Z,100.00
2024-05-09T05:00:34.750Z,100.00
2024-05-09T05:03:10.206Z,100.00
2024-05-09T05:05:42.611Z,100.00
2024-05-09T05:08:13.604Z,100.00
2024-05-09T05:10:41.120Z,100.00
2024-05-09T05:13:18.269Z,100.00
2024-05-09T05:15:55.773Z,100.00
2024-05-09T05:18:24.186Z,100.00
2024-05-09T05:20:51.511Z,100.00
2024-05-09T05:23:20.271Z,100.00
2024-05-09T05:25:54.276Z,100.00
2024-05-09T05:28:21.810Z,100.00
2024-05-09T05:30:48.637Z,100.00
2024-05-09T05:33:16.257Z,100.00
2024-05-09T05:35:43.265Z,100.00
2024-05-09T05:38:10.968Z,100.00
2024-05-09T05:40:39.367Z,100.00
2024-05-09T05:43:11.216Z,100.00
2024-05-09T05:45:38.958Z,100.00
2024-05-09T05:48:07.291Z,100.00
2024-05-09T05:50:37.241Z,100.00
2024-05-09T05:53:09.936Z,100.00
2024-05-09T05:55:38.794Z,100.00
2024-05-09T05:58:05.485Z,100.00
2024-05-09T06:03:01.816Z,100.00
2024-05-09T06:05:28.917Z,100.00
2024-05-09T06:07:55.764Z,100.00
2024-05-09T06:10:26.317Z,100.00
2024-05-09T06:13:01.478Z,100.00
2024-05-09T06:15:28.172Z,100.00
2024-05-09T06:17:55.039Z,100.00
2024-05-09T06:20:31.515Z,100.00
2024-05-09T06:23:03.358Z,100.00
2024-05-09T06:25:30.257Z,100.00
2024-05-09T06:27:56.954Z,100.00
2024-05-09T06:30:30.705Z,100.00
2024-05-09T06:33:05.970Z,100.00
2024-05-09T06:35:33.371Z,100.00
2024-05-09T06:38:00.412Z,100.00
2024-05-09T06:40:36.133Z,100.00
2024-05-09T06:43:05.816Z,100.00
2024-05-09T06:45:32.632Z,100.00
2024-05-09T06:47:59.509Z,100.00
2024-05-09T06:50:28.706Z,100.00
2024-05-09T06:53:02.572Z,100.00
2024-05-09T06:55:29.382Z,100.00
2024-05-09T06:57:56.076Z,100.00
2024-05-09T07:00:30.489Z,100.00
2024-05-09T07:03:13.066Z,100.00
2024-05-09T07:05:41.961Z,100.00
2024-05-09T07:08:08.746Z,100.00
2024-05-09T07:10:36.523Z,100.00
2024-05-09T07:13:07.678Z,100.00
2024-05-09T07:15:34.278Z,100.00
2024-05-09T07:18:01.210Z,100.00
2024-05-09T07:20:34.177Z,100.00
2024-05-09T07:23:03.105Z,100.00
2024-05-09T07:25:30.484Z,100.00
2024-05-09T07:27:57.307Z,100.00
2024-05-09T07:30:32.547Z,100.00
2024-05-09T07:33:01.424Z,100.00
2024-05-09T07:35:28.923Z,100.00
2024-05-09T07:37:55.793Z,100.00
2024-05-09T07:40:32.694Z,100.00
2024-05-09T07:43:03.262Z,100.00
2024-05-09T07:45:45.927Z,100.00
2024-05-09T07:53:38.229Z,100.00
2024-05-09T07:56:05.731Z,100.00
2024-05-09T07:58:32.536Z,100.00
2024-05-09T08:00:59.220Z,100.00
2024-05-09T08:03:25.934Z,100.00
2024-05-09T08:05:52.738Z,100.00
2024-05-09T08:08:19.415Z,100.00
2024-05-09T08:10:46.510Z,100.00
2024-05-09T08:13:13.622Z,100.00
2024-05-09T08:15:40.330Z,100.00
2024-05-09T08:18:10.612Z,100.00
2024-05-09T08:20:38.916Z,100.00
2024-05-09T08:23:05.619Z,100.00
2024-05-09T08:25:32.130Z,100.00
2024-05-09T08:27:58.870Z,100.00
2024-05-09T08:30:32.793Z,100.00
2024-05-09T08:33:05.104Z,100.00
2024-05-09T08:35:32.984Z,100.00
2024-05-09T08:37:59.696Z,100.00
2024-05-09T08:40:33.729Z,100.00
2024-05-09T08:43:06.815Z,100.00
2024-05-09T08:45:35.821Z,100.00
2024-05-09T08:48:07.656Z,100.00
2024-05-09T08:50:39.068Z,100.00
2024-05-09T08:53:07.470Z,100.00
2024-05-09T08:55:34.893Z,100.00
2024-05-09T08:58:04.321Z,100.00
2024-05-09T09:00:36.901Z,100.00
2024-05-09T09:03:09.363Z,100.00
2024-05-09T09:05:39.074Z,100.00
2024-05-09T09:08:08.042Z,100.00
2024-05-09T09:10:35.348Z,100.00
2024-05-09T09:13:04.663Z,100.00
2024-05-09T09:15:32.076Z,98.00
2024-05-09T09:18:00.847Z,99.01
2024-05-09T09:20:35.732Z,97.35
2024-05-09T09:23:04.496Z,97.58
2024-05-09T09:25:31.935Z,96.12
2024-05-09T09:27:59.250Z,93.90
2024-05-09T09:30:36.358Z,96.84
2024-05-09T09:33:06.379Z,95.81
2024-05-09T09:35:34.629Z,96.07
2024-05-09T09:38:02.113Z,97.23
2024-05-09T09:40:37.215Z,93.77
2024-05-09T09:43:18.650Z,97.45
2024-05-09T09:45:46.944Z,96.76
2024-05-09T09:48:14.863Z,97.70
2024-05-09T09:50:42.322Z,98.58
2024-05-09T09:53:10.368Z,99.18
2024-05-09T09:55:37.626Z,98.76
2024-05-09T09:58:06.396Z,95.12
2024-05-09T10:00:34.549Z,95.05
2024-05-09T10:03:02.223Z,93.71
2024-05-09T10:05:30.152Z,95.67
2024-05-09T10:07:58.543Z,98.05
2024-05-09T10:10:32.105Z,93.11
2024-05-09T10:13:07.664Z,93.80
2024-05-09T10:15:50.766Z,93.16
2024-05-09T10:18:22.753Z,94.41
2024-05-09T10:20:51.800Z,94.18
2024-05-09T10:23:36.214Z,97.31
2024-05-09T10:26:06.331Z,93.30
2024-05-09T10:28:35.497Z,93.11
2024-05-09T10:31:13.919Z,87.74
2024-05-09T10:33:52.482Z,82.81
2024-05-09T10:36:24.240Z,90.39
2024-05-09T10:38:52.812Z,80.81
2024-05-09T10:41:21.352Z,81.68
2024-05-09T10:43:49.178Z,80.02
2024-05-09T10:46:16.694Z,81.45
2024-05-09T10:48:44.414Z,72.53
2024-05-09T10:51:11.669Z,75.02
2024-05-09T10:53:42.650Z,73.90
2024-05-09T10:56:10.130Z,75.29
2024-05-09T10:58:37.164Z,70.93
2024-05-09T11:01:06.868Z,73.35
2024-05-09T11:03:35.002Z,72.51
2024-05-09T11:06:01.905Z,76.87
2024-05-09T11:08:28.940Z,70.25
2024-05-09T11:10:56.922Z,77.42
2024-05-09T11:13:37.914Z,66.84
2024-05-09T11:16:06.484Z,68.90
2024-05-09T11:18:37.853Z,65.32
2024-05-09T11:21:12.847Z,66.17
2024-05-09T11:23:40.311Z,66.40
2024-05-09T11:26:07.134Z,67.29
2024-05-09T11:28:33.835Z,66.97
2024-05-09T11:31:08.734Z,67.42
2024-05-09T11:33:41.405Z,66.21
2024-05-09T11:36:09.311Z,62.78
2024-05-09T11:38:36.046Z,67.21
2024-05-09T11:41:03.740Z,66.93
2024-05-09T11:43:30.626Z,65.28
2024-05-09T11:45:58.198Z,67.06
2024-05-09T11:48:25.781Z,66.58
2024-05-09T11:50:53.740Z,69.26
2024-05-09T11:53:20.389Z,69.04
2024-05-09T11:55:47.035Z,69.16
2024-05-09T11:58:17.216Z,69.63
2024-05-09T12:00:44.419Z,68.95
2024-05-09T12:03:11.177Z,69.42
2024-05-09T12:05:37.931Z,70.92
2024-05-09T12:08:05.016Z,68.30
2024-05-09T12:10:34.448Z,66.82
2024-05-09T12:13:05.087Z,67.85
2024-05-09T12:15:34.036Z,69.56
2024-05-09T12:18:03.586Z,70.31
2024-05-09T12:20:36.801Z,70.11
2024-05-09T12:23:06.540Z,69.18
2024-05-09T12:25:33.414Z,69.62
2024-05-09T12:28:00.711Z,69.97
2024-05-09T12:30:35.899Z,71.27
2024-05-09T12:33:07.679Z,68.65
2024-05-09T12:35:34.657Z,70.02
2024-05-09T12:38:01.559Z,70.53
2024-05-09T12:40:35.592Z,70.25
2024-05-09T12:43:09.601Z,69.51
2024-05-09T12:45:37.927Z,70.76
2024-05-09T12:48:07.544Z,70.57
2024-05-09T12:50:35.051Z,69.78
2024-05-09T12:53:03.475Z,70.30
2024-05-09T12:55:36.630Z,68.85
2024-05-09T12:58:08.880Z,68.66
2024-05-09T13:00:36.068Z,66.40
2024-05-09T13:03:03.178Z,67.26
2024-05-09T13:05:30.243Z,67.61
2024-05-09T13:07:57.411Z,67.87
2024-05-09T13:10:29.403Z,66.36
2024-05-09T13:13:00.132Z,67.86
2024-05-09T13:15:27.092Z,68.60
2024-05-09T13:17:55.792Z,67.81
2024-05-09T13:20:31.659Z,69.37
2024-05-09T13:23:02.166Z,66.81
2024-05-09T13:25:28.948Z,67.41
2024-05-09T13:27:56.817Z,65.07
2024-05-09T13:30:29.901Z,66.55
2024-05-09T13:33:06.059Z,65.08
2024-05-09T13:35:35.413Z,65.08
2024-05-09T13:38:02.825Z,66.50
2024-05-09T13:40:33.908Z,67.00
2024-05-09T13:43:06.404Z,67.96
2024-05-09T13:45:33.948Z,67.89
2024-05-09T13:48:02.352Z,69.52
2024-05-09T13:50:35.799Z,68.57
2024-05-09T13:53:06.006Z,68.51
2024-05-09T13:55:33.970Z,71.09
2024-05-09T13:58:01.290Z,70.65
2024-05-09T14:00:41.487Z,69.88
2024-05-09T14:03:13.876Z,70.99
2024-05-09T14:05:40.983Z,71.04
2024-05-09T14:08:08.722Z,72.65
2024-05-09T14:10:35.664Z,71.50
2024-05-09T14:13:02.550Z,71.08
2024-05-09T14:15:29.454Z,71.00
2024-05-09T14:17:56.302Z,71.45
2024-05-09T14:20:30.244Z,71.43
2024-05-09T14:23:01.862Z,72.85
2024-05-09T14:25:30.463Z,72.91
2024-05-09T14:28:00.359Z,73.63
2024-05-09T14:30:34.724Z,72.97
2024-05-09T14:33:05.425Z,72.17
2024-05-09T14:35:32.734Z,72.84
2024-05-09T14:37:59.517Z,72.17
2024-05-09T14:40:36.695Z,71.43
2024-05-09T14:43:08.752Z,71.37
2024-05-09T14:45:35.856Z,73.05
2024-05-09T14:48:03.355Z,72.37
2024-05-09T14:50:36.036Z,72.88
2024-05-09T14:53:06.749Z,73.03
2024-05-09T14:55:36.572Z,69.63
2024-05-09T14:58:06.214Z,70.94
2024-05-09T15:00:36.269Z,67.94
2024-05-09T15:03:05.211Z,68.61
2024-05-09T15:05:31.923Z,68.26
2024-05-09T15:07:59.463Z,63.49
2024-05-09T15:10:33.989Z,63.99
2024-05-09T15:13:02.977Z,63.64
2024-05-09T15:15:30.076Z,66.08
2024-05-09T15:17:57.164Z,65.67
2024-05-09T15:20:31.435Z,64.69
2024-05-09T15:23:02.324Z,68.93
2024-05-09T15:25:29.443Z,69.71
2024-05-09T15:27:56.548Z,69.17
2024-05-09T15:30:30.431Z,71.77
2024-05-09T15:32:59.680Z,73.02
2024-05-09T15:35:26.491Z,72.53
2024-05-09T15:37:53.298Z,72.94
2024-05-09T15:40:30.422Z,74.94
2024-05-09T15:43:04.638Z,76.85
2024-05-09T15:45:32.066Z,78.61
2024-05-09T15:47:59.310Z,79.55
2024-05-09T15:50:35.650Z,80.79
2024-05-09T15:53:06.852Z,79.72
2024-05-09T15:55:34.701Z,77.61
2024-05-09T15:58:02.948Z,76.54
2024-05-09T16:00:37.432Z,76.42
2024-05-09T16:03:08.310Z,72.50
2024-05-09T16:05:35.130Z,73.39
2024-05-09T16:08:02.395Z,74.33
2024-05-09T16:10:32.812Z,71.42
2024-05-09T16:13:02.187Z,73.63
2024-05-09T16:15:29.469Z,75.29
2024-05-09T16:17:56.330Z,72.61
2024-05-09T16:22:52.861Z,70.99
2024-05-09T16:25:19.700Z,72.73
2024-05-09T16:27:46.687Z,73.14
2024-05-09T16:30:20.991Z,72.49
2024-05-09T16:32:54.080Z,72.52
2024-05-09T16:35:20.843Z,70.95
2024-05-09T16:37:47.893Z,71.07
2024-05-09T16:40:22.168Z,69.71
2024-05-09T16:42:56.888Z,70.00
2024-05-09T16:45:23.510Z,71.20
2024-05-09T16:47:50.518Z,71.05
2024-05-09T16:50:25.737Z,69.67
2024-05-09T16:52:55.792Z,72.07
2024-05-09T16:55:22.782Z,74.88
2024-05-09T16:57:50.093Z,76.25
2024-05-09T17:00:25.549Z,76.60
2024-05-09T17:02:58.438Z,76.45
2024-05-09T17:05:25.300Z,76.41
2024-05-09T17:07:51.995Z,76.29
2024-05-09T17:10:26.764Z,75.83
2024-05-09T17:12:58.954Z,76.72
2024-05-09T17:15:25.787Z,74.55
2024-05-09T17:17:52.611Z,74.36
2024-05-09T17:20:29.285Z,74.17
2024-05-09T17:23:00.538Z,73.90
2024-05-09T17:25:27.300Z,74.75
2024-05-09T17:27:54.521Z,74.41
2024-05-09T17:30:28.900Z,72.91
2024-05-09T17:33:01.338Z,74.55
2024-05-09T17:35:28.346Z,73.74
2024-05-09T17:37:55.210Z,74.10
2024-05-09T17:40:30.745Z,73.57
2024-05-09T17:43:01.627Z,75.25
2024-05-09T17:45:28.536Z,76.18
2024-05-09T17:47:55.547Z,76.56
2024-05-09T17:50:30.232Z,76.74
2024-05-09T17:53:01.551Z,76.70
2024-05-09T17:55:28.631Z,78.28
2024-05-09T17:57:55.705Z,80.08
2024-05-09T18:00:33.079Z,79.80
2024-05-09T18:03:05.491Z,81.11
2024-05-09T18:05:32.611Z,82.12
2024-05-09T18:07:59.539Z,82.11
2024-05-09T18:10:33.163Z,83.45
2024-05-09T18:13:05.588Z,82.56
2024-05-09T18:15:32.890Z,82.34
2024-05-09T18:17:59.954Z,83.48
2024-05-09T18:20:37.873Z,83.65
2024-05-09T18:23:11.102Z,83.78
2024-05-09T18:25:37.921Z,84.59
2024-05-09T18:28:05.673Z,84.35
2024-05-09T18:30:35.456Z,83.52
2024-05-09T18:33:05.924Z,84.47
2024-05-09T18:35:34.178Z,82.91
2024-05-09T18:38:00.949Z,83.32
2024-05-09T18:40:33.303Z,83.64
2024-05-09T18:43:04.154Z,84.23
2024-05-09T18:45:31.302Z,86.50
2024-05-09T18:47:58.321Z,88.24
2024-05-09T18:50:33.996Z,88.17
2024-05-09T18:53:07.714Z,89.50
2024-05-09T18:55:34.893Z,90.18
2024-05-09T18:58:01.805Z,89.96
2024-05-09T19:00:35.049Z,89.12
2024-05-09T19:03:09.392Z,92.04
2024-05-09T19:05:38.868Z,92.61
2024-05-09T19:08:07.312Z,91.73
2024-05-09T19:10:35.526Z,93.10
2024-05-09T19:13:08.064Z,93.09
2024-05-09T19:15:38.495Z,93.21
2024-05-09T19:18:06.410Z,93.74
2024-05-09T19:20:35.086Z,95.24
2024-05-09T19:23:03.211Z,94.59
2024-05-09T19:25:30.030Z,95.50
2024-05-09T19:27:56.757Z,97.00
2024-05-09T19:30:30.524Z,97.17
2024-05-09T19:33:05.178Z,98.23
2024-05-09T19:35:32.416Z,97.21
2024-05-09T19:37:59.241Z,97.96
2024-05-09T19:40:31.542Z,98.51
2024-05-09T19:43:01.705Z,98.57
2024-05-09T19:45:29.046Z,98.34
2024-05-09T19:47:56.391Z,97.96
2024-05-09T19:50:32.104Z,98.95
2024-05-09T19:53:06.650Z,99.61
2024-05-09T19:55:33.960Z,99.66
2024-05-09T19:58:04.859Z,100.00
2024-05-09T20:00:39.579Z,100.00
2024-05-09T20:03:09.760Z,100.00
2024-05-09T20:05:37.676Z,100.00
2024-05-09T20:08:05.651Z,100.00
2024-05-09T20:10:34.982Z,100.00
2024-05-09T20:13:03.796Z,100.00
2024-05-09T20:15:32.217Z,100.00
2024-05-09T20:17:59.158Z,100.00
2024-05-09T20:20:33.786Z,100.00
2024-05-09T20:23:06.248Z,100.00
2024-05-09T20:25:33.190Z,100.00
2024-05-09T20:28:00.023Z,100.00
2024-05-09T20:30:32.046Z,100.00
2024-05-09T20:33:02.819Z,100.00
2024-05-09T20:35:31.867Z,100.00
2024-05-09T20:37:58.852Z,100.00
2024-05-09T20:40:31.685Z,100.00
2024-05-09T20:43:02.158Z,100.00
2024-05-09T20:45:28.940Z,100.00
2024-05-09T20:47:55.919Z,100.00
2024-05-09T20:50:29.298Z,100.00
2024-05-09T20:53:03.902Z,100.00
2024-05-09T20:55:30.698Z,100.00
2024-05-09T20:57:57.650Z,100.00
2024-05-09T21:00:34.314Z,100.00
2024-05-09T21:03:07.046Z,100.00
2024-05-09T21:05:34.799Z,100.00
2024-05-09T21:08:01.922Z,100.00
2024-05-09T21:10:32.779Z,100.00
2024-05-09T21:13:01.369Z,100.00
2024-05-09T21:15:28.399Z,100.00
2024-05-09T21:17:55.268Z,100.00
2024-05-09T21:20:28.728Z,100.00
2024-05-09T21:22:58.376Z,100.00
2024-05-09T21:25:25.154Z,100.00
2024-05-09T21:27:52.118Z,100.00
2024-05-09T21:30:28.215Z,100.00
2024-05-09T21:33:05.010Z,100.00
2024-05-09T21:35:32.005Z,100.00
2024-05-09T21:37:58.755Z,100.00
2024-05-09T21:40:31.651Z,100.00
2024-05-09T21:43:01.852Z,100.00
2024-05-09T21:45:28.555Z,100.00
2024-05-09T21:47:55.523Z,100.00
2024-05-09T21:50:28.382Z,100.00
2024-05-09T21:53:02.728Z,100.00
2024-05-09T21:55:30.041Z,100.00
2024-05-09T21:57:56.924Z,100.00
2024-05-09T22:00:32.030Z,100.00
2024-05-09T22:03:03.517Z,100.00
2024-05-09T22:05:30.717Z,100.00
2024-05-09T22:07:57.555Z,100.00
2024-05-09T22:10:30.795Z,100.00
2024-05-09T22:13:01.264Z,100.00
2024-05-09T22:15:28.096Z,100.00
2024-05-09T22:17:56.603Z,100.00
2024-05-09T22:20:32.895Z,100.00
2024-05-09T22:23:04.214Z,100.00
2024-05-09T22:25:32.144Z,100.00
2024-05-09T22:27:59.972Z,100.00
2024-05-09T22:30:34.665Z,100.00
2024-05-09T22:33:05.982Z,100.00
2024-05-09T22:35:33.058Z,100.00
2024-05-09T22:38:03.206Z,100.00
2024-05-09T22:40:38.934Z,100.00
2024-05-09T22:43:13.907Z,100.00
2024-05-09T22:45:41.211Z,100.00
2024-05-09T22:48:08.687Z,100.00
2024-05-09T22:50:35.677Z,100.00
2024-05-09T22:53:02.425Z,100.00
2024-05-09T22:55:29.173Z,100.00
2024-05-09T22:57:56.222Z,100.00
2024-05-09T23:00:30.961Z,100.00
2024-05-09T23:03:02.543Z,100.00
2024-05-09T23:05:30.451Z,100.00
2024-05-09T23:07:57.194Z,100.00
2024-05-09T23:10:32.025Z,100.00
2024-05-09T23:13:03.127Z,100.00
2024-05-09T23:15:30.117Z,100.00
2024-05-09T23:17:57.680Z,100.00
2024-05-09T23:22:54.317Z,100.00
2024-05-09T23:25:21.029Z,100.00
2024-05-09T23:27:47.711Z,100.00
2024-05-09T23:30:21.951Z,100.00
2024-05-09T23:32:55.752Z,100.00
2024-05-09T23:35:22.589Z,100.00
2024-05-09T23:37:49.228Z,100.00
2024-05-09T23:40:18.988Z,100.00
2024-05-09T23:42:49.380Z,100.00
2024-05-09T23:45:16.215Z,100.00
2024-05-09T23:47:43.221Z,100.00
2024-05-09T23:50:16.747Z,100.00
2024-05-09T23:52:50.117Z,100.00
2024-05-09T23:55:16.883Z,100.00
2024-05-09T23:57:43.766Z,100.00
